Time;durP1;ratioP1;P1;durP2;ratioP2;P2;SDS_P1;SDS_P2;PMS_P1;PMS_P2;Temp;Humidity;BMP_temperature;BMP_pressure;BME280_temperature;BME280_humidity;BME280_pressure;Samples;Min_cycle;Max_cycle;Signal;HPM_P1;HPM_P2
2024/01/24 00:01:37;;;;;;;2.38;1.95;;;;;;;;;;5031500;28;20411;-65
2024/01/24 00:04:05;;;;;;;2.35;2.17;;;;;;;;;;5032611;28;20128;-66
2024/01/24 00:06:33;;;;;;;2.58;1.48;;;;;;;;;;5032843;28;20041;-66
2024/01/24 00:09:00;;;;;;;3.30;2.92;;;;;;;;;;5032354;28;20043;-66
2024/01/24 00:11:29;;;;;;;6.88;4.32;;;;;;;;;;5032673;28;20049;-66
2024/01/24 00:13:56;;;;;;;3.30;2.90;;;;;;;;;;5031389;28;20033;-66
2024/01/24 00:16:24;;;;;;;6.85;4.43;;;;;;;;;;5032527;28;20087;-65
2024/01/24 00:18:54;;;;;;;4.00;3.65;;;;;;;;;;5032404;28;20045;-66
2024/01/24 00:21:21;;;;;;;5.45;3.25;;;;;;;;;;5031422;28;20045;-65
2024/01/24 00:23:49;;;;;;;4.10;3.63;;;;;;;;;;5032386;28;20046;-66
2024/01/24 00:26:17;;;;;;;2.75;2.20;;;;;;;;;;5032494;28;20033;-66
2024/01/24 00:28:44;;;;;;;8.07;3.35;;;;;;;;;;5032463;28;20387;-66
2024/01/24 00:31:12;;;;;;;4.82;4.05;;;;;;;;;;5032456;28;20422;-66
2024/01/24 00:33:39;;;;;;;4.88;4.57;;;;;;;;;;5032550;28;20073;-66
2024/01/24 00:36:07;;;;;;;4.75;4.03;;;;;;;;;;5030996;28;20046;-66
2024/01/24 00:38:34;;;;;;;1.20;1.15;;;;;;;;;;5032341;28;20075;-66
2024/01/24 00:41:02;;;;;;;9.75;4.32;;;;;;;;;;5032035;28;20042;-65
2024/01/24 00:43:29;;;;;;;1.20;1.15;;;;;;;;;;5032197;28;20487;-66
2024/01/24 00:45:57;;;;;;;11.18;6.47;;;;;;;;;;5032305;28;20039;-66
2024/01/24 00:48:25;;;;;;;4.68;3.22;;;;;;;;;;5032246;28;20406;-66
2024/01/24 00:50:53;;;;;;;11.43;2.47;;;;;;;;;;5031063;28;20042;-66
2024/01/24 00:53:21;;;;;;;12.10;2.78;;;;;;;;;;5032167;28;20390;-66
2024/01/24 00:55:48;;;;;;;16.48;5.80;;;;;;;;;;5032152;28;20041;-66
2024/01/24 00:58:16;;;;;;;18.08;5.10;;;;;;;;;;5031986;28;20041;-66
2024/01/24 01:00:43;;;;;;;0.98;0.98;;;;;;;;;;5032079;28;20464;-66
2024/01/24 01:03:12;;;;;;;3.45;2.40;;;;;;;;;;5032011;28;20391;-65
2024/01/24 01:05:39;;;;;;;2.90;2.63;;;;;;;;;;5032038;28;20037;-65
2024/01/24 01:08:07;;;;;;;1.65;1.25;;;;;;;;;;5030949;28;20679;-65
2024/01/24 01:10:35;;;;;;;0.75;0.63;;;;;;;;;;5035850;28;20045;-65
2024/01/24 01:13:03;;;;;;;8.20;3.05;;;;;;;;;;5035825;28;20096;-65
2024/01/24 01:15:30;;;;;;;3.83;2.58;;;;;;;;;;5035707;28;20041;-65
2024/01/24 01:17:58;;;;;;;11.70;5.35;;;;;;;;;;5035718;28;20497;-65
2024/01/24 01:20:26;;;;;;;4.93;2.97;;;;;;;;;;5035684;28;20087;-65
2024/01/24 01:22:53;;;;;;;5.25;2.95;;;;;;;;;;5035417;28;20042;-65
2024/01/24 01:25:21;;;;;;;1.15;1.02;;;;;;;;;;5035567;28;20041;-65
2024/01/24 01:27:48;;;;;;;10.82;3.22;;;;;;;;;;5034341;28;20112;-65
2024/01/24 01:30:16;;;;;;;5.32;4.82;;;;;;;;;;5034152;28;20069;-65
2024/01/24 01:32:43;;;;;;;5.55;3.30;;;;;;;;;;5035368;28;20041;-65
2024/01/24 01:35:11;;;;;;;5.00;3.17;;;;;;;;;;5035376;28;20491;-65
2024/01/24 01:37:39;;;;;;;4.90;3.05;;;;;;;;;;5035318;28;20037;-65
2024/01/24 01:40:07;;;;;;;4.18;2.40;;;;;;;;;;5035328;28;20041;-65
2024/01/24 01:42:35;;;;;;;3.08;2.88;;;;;;;;;;5035170;28;20041;-65
2024/01/24 01:45:06;;;;;;;2.17;2.08;;;;;;;;;;5035455;28;20063;-65
2024/01/24 01:47:33;;;;;;;6.38;3.10;;;;;;;;;;5035166;28;20041;-65
2024/01/24 01:50:01;;;;;;;10.48;3.53;;;;;;;;;;5035165;28;20045;-65
2024/01/24 01:52:29;;;;;;;3.30;3.00;;;;;;;;;;5035091;28;20045;-65
2024/01/24 01:54:56;;;;;;;0.65;0.65;;;;;;;;;;5033835;28;20033;-65
2024/01/24 01:57:24;;;;;;;4.22;1.67;;;;;;;;;;5034843;28;20375;-65
2024/01/24 01:59:52;;;;;;;9.48;5.13;;;;;;;;;;5034621;28;20191;-65
2024/01/24 02:02:20;;;;;;;5.75;2.70;;;;;;;;;;5034870;28;20041;-65
2024/01/24 02:04:47;;;;;;;3.42;3.13;;;;;;;;;;5034793;28;20048;-65
2024/01/24 02:07:15;;;;;;;6.25;2.35;;;;;;;;;;5033493;28;20042;-65
2024/01/24 02:09:44;;;;;;;6.38;3.97;;;;;;;;;;5033498;28;20073;-64
2024/01/24 02:12:11;;;;;;;2.50;1.35;;;;;;;;;;5034708;28;20045;-65
2024/01/24 02:14:39;;;;;;;4.60;2.85;;;;;;;;;;5034703;28;20103;-65
2024/01/24 02:17:06;;;;;;;1.92;1.85;;;;;;;;;;5034617;28;20037;-65
2024/01/24 02:19:34;;;;;;;21.50;3.83;;;;;;;;;;5034608;28;20052;-65
2024/01/24 02:22:02;;;;;;;14.55;5.22;;;;;;;;;;5034441;28;20057;-65
2024/01/24 02:24:29;;;;;;;6.38;4.55;;;;;;;;;;5034272;28;20050;-64
2024/01/24 02:26:57;;;;;;;12.20;2.67;;;;;;;;;;5034512;28;20486;-65
2024/01/24 02:29:25;;;;;;;4.95;4.10;;;;;;;;;;5034428;28;20041;-65
2024/01/24 02:31:52;;;;;;;6.18;4.05;;;;;;;;;;5034339;28;20046;-65
2024/01/24 02:34:20;;;;;;;2.63;2.42;;;;;;;;;;5033153;28;20542;-65
2024/01/24 02:36:48;;;;;;;4.65;4.25;;;;;;;;;;5034371;28;20041;-65
2024/01/24 02:39:17;;;;;;;3.72;3.45;;;;;;;;;;5032994;28;20037;-65
2024/01/24 02:41:46;;;;;;;1.90;1.80;;;;;;;;;;5034219;28;20038;-65
2024/01/24 02:44:13;;;;;;;5.80;2.75;;;;;;;;;;5032796;28;20052;-65
2024/01/24 02:46:41;;;;;;;5.35;4.47;;;;;;;;;;5034102;28;20037;-64
2024/01/24 02:49:08;;;;;;;3.55;1.58;;;;;;;;;;5033940;28;20045;-65
2024/01/24 02:51:36;;;;;;;4.70;2.20;;;;;;;;;;5033889;28;20053;-65
2024/01/24 02:54:04;;;;;;;7.15;3.45;;;;;;;;;;5032786;28;20545;-65
2024/01/24 02:56:33;;;;;;;5.35;4.53;;;;;;;;;;5032673;28;20037;-65
2024/01/24 02:59:01;;;;;;;1.20;1.20;;;;;;;;;;5032561;28;20046;-65
2024/01/24 03:01:28;;;;;;;2.75;2.55;;;;;;;;;;5032340;28;20048;-65
2024/01/24 03:03:56;;;;;;;1.88;1.02;;;;;;;;;;5032490;28;20140;-65
2024/01/24 03:06:24;;;;;;;5.15;3.17;;;;;;;;;;5033632;28;20501;-65
2024/01/24 03:08:54;;;;;;;5.45;3.30;;;;;;;;;;5032072;28;20041;-65
2024/01/24 03:11:22;;;;;;;1.70;1.63;;;;;;;;;;5033313;28;20091;-65
2024/01/24 03:13:50;;;;;;;7.82;3.05;;;;;;;;;;5032521;28;20124;-65
2024/01/24 03:16:18;;;;;;;1.35;1.27;;;;;;;;;;5033512;28;20085;-65
2024/01/24 03:18:47;;;;;;;5.78;3.42;;;;;;;;;;5033148;28;20068;-65
2024/01/24 03:21:17;;;;;;;3.33;2.63;;;;;;;;;;5033250;28;20487;-65
2024/01/24 03:23:45;;;;;;;2.35;2.17;;;;;;;;;;5033236;28;20045;-65
2024/01/24 03:26:14;;;;;;;6.70;1.95;;;;;;;;;;5033361;28;20072;-65
2024/01/24 03:28:42;;;;;;;5.50;4.03;;;;;;;;;;5033276;28;20045;-65
2024/01/24 03:31:10;;;;;;;22.63;8.07;;;;;;;;;;5031229;28;20462;-65
2024/01/24 03:33:38;;;;;;;8.25;3.85;;;;;;;;;;5032057;28;20438;-65
2024/01/24 03:36:06;;;;;;;6.25;4.00;;;;;;;;;;5033168;28;20047;-65
2024/01/24 03:38:34;;;;;;;4.38;3.97;;;;;;;;;;5033179;28;20045;-65
2024/01/24 03:41:02;;;;;;;2.85;2.65;;;;;;;;;;5033189;28;20046;-65
2024/01/24 03:43:29;;;;;;;11.02;6.35;;;;;;;;;;5031914;28;20458;-65
2024/01/24 03:45:57;;;;;;;3.38;2.95;;;;;;;;;;5033030;28;20038;-66
2024/01/24 03:48:25;;;;;;;5.03;4.50;;;;;;;;;;5032970;28;20045;-66
2024/01/24 03:50:52;;;;;;;8.60;6.63;;;;;;;;;;5031592;28;20037;-65
2024/01/24 03:53:20;;;;;;;5.70;2.75;;;;;;;;;;5032893;28;20037;-66
2024/01/24 03:55:47;;;;;;;3.67;3.15;;;;;;;;;;5032576;28;20047;-65
2024/01/24 03:58:15;;;;;;;2.28;2.10;;;;;;;;;;5032812;28;20049;-65
2024/01/24 04:00:42;;;;;;;14.23;5.43;;;;;;;;;;5032754;28;20044;-65
2024/01/24 04:03:10;;;;;;;3.35;3.08;;;;;;;;;;5032444;28;20505;-65
2024/01/24 04:05:38;;;;;;;1.48;1.38;;;;;;;;;;5032879;28;20045;-65
2024/01/24 04:08:06;;;;;;;9.43;5.68;;;;;;;;;;5032680;28;20128;-65
2024/01/24 04:10:33;;;;;;;6.80;2.38;;;;;;;;;;5032389;28;20038;-65
2024/01/24 04:13:01;;;;;;;6.43;5.82;;;;;;;;;;5031323;28;20037;-65
2024/01/24 04:15:28;;;;;;;3.85;3.42;;;;;;;;;;5032436;28;20041;-65
2024/01/24 04:17:56;;;;;;;21.38;3.90;;;;;;;;;;5032560;28;20080;-65
2024/01/24 04:20:23;;;;;;;2.47;2.33;;;;;;;;;;5032525;28;20397;-65
2024/01/24 04:22:51;;;;;;;6.50;4.55;;;;;;;;;;5032388;28;20112;-65
2024/01/24 04:25:20;;;;;;;3.38;1.92;;;;;;;;;;5032198;28;20041;-64
2024/01/24 04:27:48;;;;;;;9.02;4.95;;;;;;;;;;5032536;28;20498;-65
2024/01/24 04:30:16;;;;;;;4.28;3.25;;;;;;;;;;5032437;28;20042;-65
2024/01/24 04:32:44;;;;;;;11.93;3.38;;;;;;;;;;5032303;28;20036;-65
2024/01/24 04:35:12;;;;;;;2.03;1.65;;;;;;;;;;5030961;28;20046;-65
2024/01/24 04:37:39;;;;;;;5.10;4.25;;;;;;;;;;5032358;28;20399;-65
2024/01/24 04:40:07;;;;;;;1.40;1.30;;;;;;;;;;5032315;28;20116;-65
2024/01/24 04:42:35;;;;;;;4.10;3.80;;;;;;;;;;5032185;28;20034;-65
2024/01/24 04:45:02;;;;;;;12.55;6.97;;;;;;;;;;5035496;28;20045;-65
2024/01/24 04:47:30;;;;;;;4.57;1.90;;;;;;;;;;5036301;28;20052;-65
2024/01/24 04:49:57;;;;;;;4.93;3.10;;;;;;;;;;5035971;28;20043;-65
2024/01/24 04:52:25;;;;;;;0.20;0.20;;;;;;;;;;5036120;28;20041;-65
2024/01/24 04:54:53;;;;;;;5.10;3.70;;;;;;;;;;5036043;28;20053;-65
2024/01/24 04:57:20;;;;;;;3.22;2.25;;;;;;;;;;5035636;28;20088;-65
2024/01/24 04:59:48;;;;;;;4.05;2.78;;;;;;;;;;5034847;28;20044;-65
2024/01/24 05:02:23;;;;;;;21.97;3.70;;;;;;;;;;5034778;28;20049;-65
2024/01/24 05:04:50;;;;;;;4.88;4.38;;;;;;;;;;5035836;28;20291;-65
2024/01/24 05:07:18;;;;;;;7.13;3.63;;;;;;;;;;5035893;28;20040;-65
2024/01/24 05:09:46;;;;;;;6.97;4.70;;;;;;;;;;5035840;28;20041;-65
2024/01/24 05:12:13;;;;;;;7.70;4.07;;;;;;;;;;5035828;28;20498;-65
2024/01/24 05:14:42;;;;;;;2.60;2.40;;;;;;;;;;5035798;28;20456;-65
2024/01/24 05:17:10;;;;;;;1.83;1.67;;;;;;;;;;5035574;28;20041;-64
2024/01/24 05:19:38;;;;;;;13.25;3.40;;;;;;;;;;5035726;28;20053;-65
2024/01/24 05:22:05;;;;;;;5.07;4.65;;;;;;;;;;5035568;28;20056;-65
2024/01/24 05:24:33;;;;;;;3.83;2.88;;;;;;;;;;5033885;28;20172;-64
2024/01/24 05:27:01;;;;;;;4.43;3.92;;;;;;;;;;5035558;28;20042;-65
2024/01/24 05:29:28;;;;;;;9.85;3.83;;;;;;;;;;5035879;28;20485;-65
2024/01/24 05:31:56;;;;;;;2.67;2.47;;;;;;;;;;5035292;28;20079;-65
2024/01/24 05:34:23;;;;;;;13.18;5.63;;;;;;;;;;5035765;28;20386;-64
2024/01/24 05:36:53;;;;;;;1.60;1.45;;;;;;;;;;5035389;28;20069;-65
2024/01/24 05:39:21;;;;;;;2.03;1.90;;;;;;;;;;5035207;28;20096;-65
2024/01/24 05:41:48;;;;;;;6.35;3.08;;;;;;;;;;5035376;28;20033;-65
2024/01/24 05:44:16;;;;;;;8.88;5.72;;;;;;;;;;5035212;28;20432;-65
2024/01/24 05:46:43;;;;;;;2.63;2.08;;;;;;;;;;5035209;28;20037;-65
2024/01/24 05:49:11;;;;;;;5.78;2.70;;;;;;;;;;5035080;28;20049;-64
2024/01/24 05:51:39;;;;;;;10.10;5.53;;;;;;;;;;5033866;28;20087;-64
2024/01/24 05:54:06;;;;;;;2.33;1.70;;;;;;;;;;5034305;28;20033;-66
2024/01/24 05:56:35;;;;;;;5.97;3.13;;;;;;;;;;5033779;28;20069;-65
2024/01/24 05:59:02;;;;;;;6.53;3.28;;;;;;;;;;5035050;28;20088;-65
2024/01/24 06:01:30;;;;;;;2.97;2.35;;;;;;;;;;5035041;28;20045;-65
2024/01/24 06:03:58;;;;;;;1.55;1.45;;;;;;;;;;5034608;28;20034;-65
2024/01/24 06:06:25;;;;;;;15.95;4.82;;;;;;;;;;5034860;28;20041;-65
2024/01/24 06:08:53;;;;;;;21.52;6.65;;;;;;;;;;5035092;28;20046;-64
2024/01/24 06:11:21;;;;;;;9.15;4.68;;;;;;;;;;5034681;28;20112;-64
2024/01/24 06:13:48;;;;;;;2.70;2.50;;;;;;;;;;5034727;28;20045;-65
2024/01/24 06:16:16;;;;;;;1.73;1.63;;;;;;;;;;5034601;28;20042;-64
2024/01/24 06:18:44;;;;;;;2.28;2.17;;;;;;;;;;5034594;28;20099;-65
2024/01/24 06:21:11;;;;;;;7.15;3.10;;;;;;;;;;5033211;28;20132;-64
2024/01/24 06:23:39;;;;;;;11.52;3.85;;;;;;;;;;5034473;28;20037;-64
2024/01/24 06:26:07;;;;;;;3.95;3.60;;;;;;;;;;5034430;28;20398;-64
2024/01/24 06:28:35;;;;;;;6.38;1.95;;;;;;;;;;5034309;28;20045;-64
2024/01/24 06:31:03;;;;;;;3.05;2.20;;;;;;;;;;5034339;28;20049;-64
2024/01/24 06:33:31;;;;;;;14.10;5.30;;;;;;;;;;5034211;28;20042;-64
2024/01/24 06:36:00;;;;;;;5.28;2.83;;;;;;;;;;5034562;28;20546;-65
2024/01/24 06:38:27;;;;;;;11.25;4.90;;;;;;;;;;5034427;28;20426;-65
2024/01/24 06:40:55;;;;;;;16.33;7.53;;;;;;;;;;5034097;28;20041;-65
2024/01/24 06:43:23;;;;;;;4.68;4.22;;;;;;;;;;5034245;28;20049;-65
2024/01/24 06:45:50;;;;;;;7.20;4.63;;;;;;;;;;5034251;28;20041;-65
2024/01/24 06:48:18;;;;;;;5.10;3.35;;;;;;;;;;5034033;28;20041;-65
2024/01/24 06:50:46;;;;;;;7.35;4.05;;;;;;;;;;5033857;28;20049;-65
2024/01/24 06:53:14;;;;;;;6.40;3.70;;;;;;;;;;5033853;28;20072;-65
2024/01/24 06:55:44;;;;;;;4.13;2.10;;;;;;;;;;5032070;28;20041;-65
2024/01/24 06:58:11;;;;;;;3.30;2.60;;;;;;;;;;5033695;28;20525;-65
2024/01/24 07:00:39;;;;;;;11.80;3.53;;;;;;;;;;5033632;28;20120;-65
2024/01/24 07:03:07;;;;;;;11.90;4.90;;;;;;;;;;5033610;28;20119;-65
2024/01/24 07:05:34;;;;;;;18.60;5.57;;;;;;;;;;5033200;28;20485;-65
2024/01/24 07:08:02;;;;;;;6.28;5.65;;;;;;;;;;5032883;28;20116;-65
2024/01/24 07:10:29;;;;;;;7.43;6.70;;;;;;;;;;5031883;28;20129;-66
2024/01/24 07:12:59;;;;;;;4.90;4.40;;;;;;;;;;5033489;28;20042;-66
2024/01/24 07:15:27;;;;;;;9.98;4.88;;;;;;;;;;5033566;28;20053;-63
2024/01/24 07:17:55;;;;;;;12.48;4.85;;;;;;;;;;5033227;28;20120;-63
2024/01/24 07:20:23;;;;;;;6.50;5.75;;;;;;;;;;5033432;28;20069;-63
2024/01/24 07:22:51;;;;;;;8.05;4.80;;;;;;;;;;5033240;28;20411;-63
2024/01/24 07:25:20;;;;;;;11.30;5.72;;;;;;;;;;5033239;28;20041;-63
2024/01/24 07:27:48;;;;;;;9.52;4.25;;;;;;;;;;5033255;28;20067;-64
2024/01/24 07:30:16;;;;;;;13.65;7.57;;;;;;;;;;5026708;28;20116;-64
2024/01/24 07:32:44;;;;;;;6.80;5.38;;;;;;;;;;5025652;28;20503;-64
2024/01/24 07:35:12;;;;;;;6.03;3.50;;;;;;;;;;5022347;28;20042;-64
2024/01/24 07:37:40;;;;;;;16.02;6.78;;;;;;;;;;5012003;28;20042;-64
2024/01/24 07:40:07;;;;;;;7.57;2.20;;;;;;;;;;5024687;28;20042;-64
2024/01/24 07:42:35;;;;;;;8.57;6.10;;;;;;;;;;5023618;28;20045;-64
2024/01/24 07:45:03;;;;;;;7.97;4.05;;;;;;;;;;5026183;28;20384;-64
2024/01/24 07:47:31;;;;;;;5.22;4.72;;;;;;;;;;5026722;28;20072;-63
2024/01/24 07:49:58;;;;;;;14.20;5.78;;;;;;;;;;5020992;28;20550;-64
2024/01/24 07:52:26;;;;;;;2.28;1.98;;;;;;;;;;5005507;28;20057;-64
2024/01/24 07:55:07;;;;;;;2.10;1.73;;;;;;;;;;5020391;28;20037;-64
2024/01/24 07:57:35;;;;;;;4.03;2.63;;;;;;;;;;5019153;28;20033;-65
2024/01/24 08:00:06;;;;;;;5.45;5.00;;;;;;;;;;5022254;28;20088;-63
2024/01/24 08:02:34;;;;;;;11.85;4.65;;;;;;;;;;5026389;28;20541;-63
2024/01/24 08:05:02;;;;;;;12.27;6.90;;;;;;;;;;5022765;28;20145;-63
2024/01/24 08:07:33;;;;;;;8.05;5.85;;;;;;;;;;5008289;28;20048;-64
2024/01/24 08:10:00;;;;;;;7.05;4.95;;;;;;;;;;5009592;28;20045;-63
2024/01/24 08:12:28;;;;;;;7.03;4.18;;;;;;;;;;5016752;28;20487;-63
2024/01/24 08:14:56;;;;;;;7.32;3.45;;;;;;;;;;5013775;28;20495;-64
2024/01/24 08:17:25;;;;;;;16.55;7.95;;;;;;;;;;5008159;28;20038;-63
2024/01/24 08:19:52;;;;;;;10.43;8.70;;;;;;;;;;5011711;28;20124;-63
2024/01/24 08:22:20;;;;;;;5.60;3.70;;;;;;;;;;5015703;28;20442;-63
2024/01/24 08:24:48;;;;;;;3.20;0.95;;;;;;;;;;5014439;28;20057;-63
2024/01/24 08:27:17;;;;;;;0.93;0.90;;;;;;;;;;5012774;28;20042;-64
2024/01/24 08:29:46;;;;;;;10.93;6.38;;;;;;;;;;5023170;28;20056;-63
2024/01/24 08:32:13;;;;;;;6.35;3.92;;;;;;;;;;5022155;28;20158;-66
2024/01/24 08:34:48;;;;;;;4.15;3.08;;;;;;;;;;5014185;28;20064;-66
2024/01/24 08:37:24;;;;;;;11.63;6.50;;;;;;;;;;5024204;28;20124;-64
2024/01/24 08:40:03;;;;;;;9.00;3.63;;;;;;;;;;5026488;28;20045;-63
2024/01/24 08:42:31;;;;;;;4.70;4.32;;;;;;;;;;5034515;28;20088;-63
2024/01/24 08:44:58;;;;;;;9.13;6.10;;;;;;;;;;5026144;28;20072;-64
2024/01/24 08:47:26;;;;;;;6.57;4.90;;;;;;;;;;5026827;28;20057;-63
2024/01/24 08:49:56;;;;;;;7.68;5.50;;;;;;;;;;5025444;28;20552;-64
2024/01/24 08:52:24;;;;;;;11.23;5.18;;;;;;;;;;5021925;28;20049;-63
2024/01/24 08:54:52;;;;;;;10.30;8.10;;;;;;;;;;5020371;28;20038;-64
2024/01/24 08:57:20;;;;;;;12.88;11.57;;;;;;;;;;5020771;28;20111;-64
2024/01/24 08:59:48;;;;;;;19.33;7.05;;;;;;;;;;5010699;28;20060;-64
2024/01/24 09:02:17;;;;;;;3.30;3.00;;;;;;;;;;5022204;28;20049;-64
2024/01/24 09:04:46;;;;;;;14.93;8.07;;;;;;;;;;5010869;28;20124;-63
2024/01/24 09:07:19;;;;;;;12.48;7.50;;;;;;;;;;5018342;28;20041;-63
2024/01/24 09:09:49;;;;;;;17.75;8.07;;;;;;;;;;5025436;28;20069;-64
2024/01/24 09:12:17;;;;;;;5.03;2.55;;;;;;;;;;5017101;28;20503;-64
2024/01/24 09:14:45;;;;;;;2.95;2.75;;;;;;;;;;5010070;28;20048;-66
2024/01/24 09:17:13;;;;;;;6.50;3.08;;;;;;;;;;5008648;28;20380;-64
2024/01/24 09:19:41;;;;;;;16.13;7.78;;;;;;;;;;5020024;28;20041;-63
2024/01/24 09:22:12;;;;;;;7.47;4.57;;;;;;;;;;5018311;28;20133;-63
2024/01/24 09:24:40;;;;;;;6.05;4.22;;;;;;;;;;5010666;28;20060;-63
2024/01/24 09:27:08;;;;;;;11.77;8.13;;;;;;;;;;5015108;28;20120;-64
2024/01/24 09:29:35;;;;;;;14.00;6.63;;;;;;;;;;5015411;28;20581;-64
2024/01/24 09:32:03;;;;;;;12.73;3.97;;;;;;;;;;5024658;28;20061;-63
2024/01/24 09:34:31;;;;;;;4.05;2.92;;;;;;;;;;5019378;28;20049;-64
2024/01/24 09:37:00;;;;;;;3.78;3.05;;;;;;;;;;5020351;28;20038;-62
2024/01/24 09:39:28;;;;;;;6.35;4.95;;;;;;;;;;5023835;28;20114;-63
2024/01/24 09:41:57;;;;;;;3.58;3.08;;;;;;;;;;5011177;28;20490;-63
2024/01/24 09:44:25;;;;;;;3.40;3.20;;;;;;;;;;5013250;28;20050;-64
2024/01/24 09:46:55;;;;;;;17.55;5.97;;;;;;;;;;5021162;28;20071;-63
2024/01/24 09:49:23;;;;;;;15.70;8.60;;;;;;;;;;5028687;28;20050;-63
2024/01/24 09:51:52;;;;;;;16.08;8.27;;;;;;;;;;5029160;28;20037;-62
2024/01/24 09:54:20;;;;;;;9.10;5.05;;;;;;;;;;5027958;28;20081;-62
2024/01/24 09:56:48;;;;;;;5.93;2.90;;;;;;;;;;5028848;28;20517;-63
2024/01/24 09:59:16;;;;;;;9.30;7.07;;;;;;;;;;5028296;28;20049;-63
2024/01/24 10:01:44;;;;;;;11.18;6.90;;;;;;;;;;5014505;28;20125;-71
2024/01/24 10:04:13;;;;;;;9.20;6.65;;;;;;;;;;5027779;28;20591;-72
2024/01/24 10:06:41;;;;;;;15.43;8.07;;;;;;;;;;5028210;28;20076;-71
2024/01/24 10:09:09;;;;;;;19.92;9.93;;;;;;;;;;5029296;28;20047;-71
2024/01/24 10:11:37;;;;;;;14.20;6.03;;;;;;;;;;5029388;28;20080;-71
2024/01/24 10:14:04;;;;;;;5.40;3.95;;;;;;;;;;5029159;28;20110;-72
2024/01/24 10:16:32;;;;;;;7.70;5.18;;;;;;;;;;5029053;28;20049;-72
2024/01/24 10:19:00;;;;;;;6.93;4.72;;;;;;;;;;5027628;28;20045;-72
2024/01/24 10:21:27;;;;;;;9.85;3.35;;;;;;;;;;5028880;28;20073;-72
2024/01/24 10:24:01;;;;;;;5.22;3.50;;;;;;;;;;5028716;28;20041;-72
2024/01/24 10:26:29;;;;;;;1.92;1.52;;;;;;;;;;5026657;28;20041;-71
2024/01/24 10:28:57;;;;;;;9.02;5.82;;;;;;;;;;5028554;28;20030;-71
2024/01/24 10:31:25;;;;;;;4.82;4.38;;;;;;;;;;5028607;28;20049;-72
2024/01/24 10:34:06;;;;;;;17.20;5.53;;;;;;;;;;5027818;28;20437;-72
2024/01/24 10:36:38;;;;;;;5.78;3.22;;;;;;;;;;5011302;28;20407;-74
2024/01/24 10:39:15;;;;;;;8.45;6.80;;;;;;;;;;5028383;28;20061;-74
2024/01/24 10:41:46;;;;;;;14.15;7.90;;;;;;;;;;5011697;28;20053;-71
2024/01/24 10:44:17;;;;;;;13.10;6.50;;;;;;;;;;5028532;28;20116;-72
2024/01/24 10:46:49;;;;;;;11.25;7.03;;;;;;;;;;5027603;28;20056;-72
2024/01/24 10:49:19;;;;;;;10.75;6.65;;;;;;;;;;5027447;28;20034;-72
2024/01/24 10:51:47;;;;;;;26.15;9.75;;;;;;;;;;5028084;28;20132;-72
2024/01/24 10:54:16;;;;;;;10.98;7.10;;;;;;;;;;5020024;28;20507;-72
2024/01/24 10:56:49;;;;;;;5.45;3.97;;;;;;;;;;5025308;28;20048;-72
2024/01/24 10:59:18;;;;;;;8.68;6.35;;;;;;;;;;5021598;28;20499;-72
2024/01/24 11:01:49;;;;;;;15.82;7.90;;;;;;;;;;5025059;28;20128;-72
2024/01/24 11:04:19;;;;;;;10.95;4.90;;;;;;;;;;5022403;28;20057;-71
2024/01/24 11:06:57;;;;;;;6.22;4.05;;;;;;;;;;5012628;28;20141;-72
2024/01/24 11:09:31;;;;;;;14.55;5.53;;;;;;;;;;5022265;28;20052;-72
2024/01/24 11:11:59;;;;;;;12.68;6.88;;;;;;;;;;5019393;28;20053;-72
2024/01/24 11:14:34;;;;;;;6.00;4.22;;;;;;;;;;5026240;28;20041;-73
2024/01/24 11:17:05;;;;;;;2.05;1.88;;;;;;;;;;5017444;28;20049;-72
2024/01/24 11:19:34;;;;;;;13.80;6.22;;;;;;;;;;5014367;28;20370;-72
2024/01/24 11:22:09;;;;;;;19.27;8.93;;;;;;;;;;5015397;28;20375;-73
2024/01/24 11:24:50;;;;;;;3.90;3.17;;;;;;;;;;5015654;28;20460;-72
2024/01/24 11:27:25;;;;;;;10.30;3.53;;;;;;;;;;5017120;28;20125;-73
2024/01/24 11:29:53;;;;;;;2.15;1.95;;;;;;;;;;5010177;28;20064;-73
2024/01/24 11:32:39;;;;;;;5.93;2.72;;;;;;;;;;5010580;28;20538;-72
2024/01/24 11:35:26;;;;;;;6.68;3.85;;;;;;;;;;5010266;28;20088;-72
2024/01/24 11:37:59;;;;;;;3.20;2.88;;;;;;;;;;5015544;28;20520;-72
2024/01/24 11:40:49;;;;;;;2.08;1.67;;;;;;;;;;5027971;28;20087;-73
2024/01/24 11:43:38;;;;;;;6.03;5.50;;;;;;;;;;5027270;28;20744;-73
2024/01/24 11:46:08;;;;;;;2.08;1.92;;;;;;;;;;5027434;28;20496;-73
2024/01/24 11:48:38;;;;;;;9.98;5.13;;;;;;;;;;5027542;28;20045;-71
2024/01/24 11:51:11;;;;;;;4.32;2.22;;;;;;;;;;5042750;28;20486;-72
2024/01/24 11:53:39;;;;;;;4.00;3.10;;;;;;;;;;5026682;28;20472;-72
2024/01/24 11:56:16;;;;;;;0.82;0.82;;;;;;;;;;5027657;28;20456;-73
2024/01/24 11:58:44;;;;;;;1.40;1.33;;;;;;;;;;5027907;28;20073;-72
2024/01/24 12:01:12;;;;;;;10.07;4.65;;;;;;;;;;5027614;28;20486;-72
2024/01/24 12:03:47;;;;;;;13.88;4.75;;;;;;;;;;5027420;28;20559;-73
2024/01/24 12:06:17;;;;;;;1.42;1.33;;;;;;;;;;5026664;28;20121;-73
2024/01/24 12:08:45;;;;;;;6.13;3.40;;;;;;;;;;5026204;28;20041;-73
2024/01/24 12:11:18;;;;;;;3.83;2.45;;;;;;;;;;5027549;28;20052;-73
2024/01/24 12:13:46;;;;;;;3.53;1.65;;;;;;;;;;5027200;28;20111;-73
2024/01/24 12:16:14;;;;;;;1.67;1.52;;;;;;;;;;5027276;28;20038;-73
2024/01/24 12:18:42;;;;;;;3.55;2.55;;;;;;;;;;5026018;28;20033;-73
2024/01/24 12:21:11;;;;;;;4.60;3.13;;;;;;;;;;5023092;28;20099;-72
2024/01/24 12:23:39;;;;;;;2.03;1.90;;;;;;;;;;5020948;28;20052;-72
2024/01/24 12:26:08;;;;;;;3.13;2.70;;;;;;;;;;5016788;28;20117;-72
2024/01/24 12:28:36;;;;;;;2.22;2.00;;;;;;;;;;5019760;28;20123;-73
2024/01/24 12:31:04;;;;;;;5.18;4.05;;;;;;;;;;5021617;28;20046;-71
2024/01/24 12:33:35;;;;;;;2.42;1.55;;;;;;;;;;5021205;28;20053;-73
2024/01/24 12:36:05;;;;;;;5.43;3.95;;;;;;;;;;5026089;28;20041;-73
2024/01/24 12:38:36;;;;;;;3.58;2.90;;;;;;;;;;5034332;28;20103;-72
2024/01/24 12:41:04;;;;;;;5.35;2.20;;;;;;;;;;5042227;28;20041;-73
2024/01/24 12:43:32;;;;;;;4.35;3.60;;;;;;;;;;5041735;28;20045;-72
2024/01/24 12:46:07;;;;;;;7.18;3.65;;;;;;;;;;5026882;28;20391;-73
2024/01/24 12:48:37;;;;;;;4.13;2.65;;;;;;;;;;5027144;28;20053;-72
2024/01/24 12:51:06;;;;;;;1.45;1.35;;;;;;;;;;5023652;28;20030;-72
2024/01/24 12:53:34;;;;;;;8.30;2.72;;;;;;;;;;5007138;28;20133;-72
2024/01/24 12:56:02;;;;;;;5.95;3.15;;;;;;;;;;5008520;28;20048;-72
2024/01/24 12:58:33;;;;;;;2.13;1.92;;;;;;;;;;5009685;28;20069;-72
2024/01/24 13:01:04;;;;;;;4.50;2.80;;;;;;;;;;5026417;28;20053;-72
2024/01/24 13:03:32;;;;;;;1.27;1.20;;;;;;;;;;5025455;28;20041;-72
2024/01/24 13:06:03;;;;;;;4.70;3.28;;;;;;;;;;5029683;28;20072;-73
2024/01/24 13:08:31;;;;;;;3.72;3.40;;;;;;;;;;5029250;28;20128;-73
2024/01/24 13:10:59;;;;;;;6.05;2.03;;;;;;;;;;5030252;28;20554;-73
2024/01/24 13:13:27;;;;;;;1.90;1.80;;;;;;;;;;5029503;28;20041;-73
2024/01/24 13:15:57;;;;;;;1.88;1.77;;;;;;;;;;5030354;28;20443;-72
2024/01/24 13:18:24;;;;;;;2.22;2.05;;;;;;;;;;5029921;28;20041;-72
2024/01/24 13:20:52;;;;;;;2.20;0.70;;;;;;;;;;5030249;28;20047;-73
2024/01/24 13:23:20;;;;;;;2.47;2.28;;;;;;;;;;5030259;28;20053;-72
2024/01/24 13:25:48;;;;;;;3.53;3.25;;;;;;;;;;5028781;28;20042;-72
2024/01/24 13:28:18;;;;;;;2.42;2.22;;;;;;;;;;5029683;28;20053;-72
2024/01/24 13:30:47;;;;;;;11.68;2.65;;;;;;;;;;5022191;28;20123;-73
2024/01/24 13:33:16;;;;;;;4.03;2.22;;;;;;;;;;5030157;28;20045;-73
2024/01/24 13:35:44;;;;;;;5.88;3.25;;;;;;;;;;5019894;28;20124;-73
2024/01/24 13:38:12;;;;;;;1.55;1.35;;;;;;;;;;5020047;28;20409;-73
2024/01/24 13:40:40;;;;;;;2.03;1.80;;;;;;;;;;5045144;28;20156;-73
2024/01/24 13:43:07;;;;;;;5.32;3.85;;;;;;;;;;5044849;28;20087;-72
2024/01/24 13:45:35;;;;;;;2.80;2.22;;;;;;;;;;5029838;28;20041;-73
2024/01/24 13:48:08;;;;;;;7.82;4.07;;;;;;;;;;5030073;28;20052;-73
2024/01/24 13:50:37;;;;;;;5.18;3.00;;;;;;;;;;5029460;28;20056;-74
2024/01/24 13:53:06;;;;;;;2.33;2.20;;;;;;;;;;5019519;28;20167;-73
2024/01/24 13:55:34;;;;;;;11.93;5.22;;;;;;;;;;5014195;28;20042;-72
2024/01/24 13:58:01;;;;;;;2.95;2.45;;;;;;;;;;5024522;28;20046;-73
2024/01/24 14:00:29;;;;;;;2.70;2.55;;;;;;;;;;5024292;28;20064;-72
2024/01/24 14:02:57;;;;;;;5.00;4.05;;;;;;;;;;5015286;28;20072;-72
2024/01/24 14:05:25;;;;;;;3.92;2.50;;;;;;;;;;5028432;28;20044;-72
2024/01/24 14:07:53;;;;;;;1.20;1.20;;;;;;;;;;5022221;28;20058;-72
2024/01/24 14:10:21;;;;;;;4.45;3.88;;;;;;;;;;5012539;28;20119;-73
2024/01/24 14:12:48;;;;;;;5.07;3.10;;;;;;;;;;5031236;28;20724;-72
2024/01/24 14:15:17;;;;;;;6.43;3.97;;;;;;;;;;5025625;28;20069;-73
2024/01/24 14:18:00;;;;;;;8.38;3.40;;;;;;;;;;5022708;28;20069;-73
2024/01/24 14:20:28;;;;;;;0.68;0.68;;;;;;;;;;5027372;28;20494;-72
2024/01/24 14:22:56;;;;;;;8.07;2.63;;;;;;;;;;5020400;28;20045;-73
2024/01/24 14:25:23;;;;;;;0.90;0.90;;;;;;;;;;5013125;28;20133;-73
2024/01/24 14:27:51;;;;;;;8.60;2.95;;;;;;;;;;5014450;28;20038;-72
2024/01/24 14:30:19;;;;;;;3.85;3.45;;;;;;;;;;5012015;28;20060;-74
2024/01/24 14:32:46;;;;;;;1.25;1.17;;;;;;;;;;5015556;28;20033;-72
2024/01/24 14:35:16;;;;;;;3.10;1.42;;;;;;;;;;5014304;28;20049;-72
2024/01/24 14:37:44;;;;;;;1.00;1.00;;;;;;;;;;5015199;28;20045;-74
2024/01/24 14:40:15;;;;;;;1.50;1.38;;;;;;;;;;5028931;28;20120;-76
2024/01/24 14:42:43;;;;;;;1.67;1.55;;;;;;;;;;5028388;28;20045;-77
2024/01/24 14:45:14;;;;;;;2.75;2.22;;;;;;;;;;5028700;28;20037;-76
2024/01/24 14:47:42;;;;;;;9.77;2.92;;;;;;;;;;5024112;28;20535;-77
2024/01/24 14:50:11;;;;;;;0.85;0.85;;;;;;;;;;5026853;28;20041;-76